Airport View

Enter AWOS ICAO identifier for current METAR.

ex. KFNL

KMBO 080555Z AUTO 00000KT 10SM CLR 22/22 A3010 RMK AO2 PWINO

8 Aug 2020 05:46

Frequency: 119.125

Phone: 601-605-8137

Other Area AWOS: KJAN - KHKS - KJVW - KVKS

TAF KJAN 072328Z 0800/0824 35005KT P6SM FEW060